Time;durP1;ratioP1;P1;durP2;ratioP2;P2;SDS_P1;SDS_P2;PMS_P1;PMS_P2;Temp;Humidity;BMP_temperature;BMP_pressure;BME280_temperature;BME280_humidity;BME280_pressure;Samples;Min_cycle;Max_cycle;Signal;HPM_P1;HPM_P2
2023/07/19 00:01:33;;;;;;;;;4.00;4.00;;;;;26.09;31.60;100993.44;5061056;28;46221;-66
2023/07/19 00:03:59;;;;;;;;;5.00;5.00;;;;;26.04;31.56;100982.13;5062205;28;49819;-66
2023/07/19 00:06:24;;;;;;;;;5.00;5.00;;;;;26.02;31.01;100981.38;5062328;28;45229;-66
2023/07/19 00:08:50;;;;;;;;;8.00;4.25;;;;;26.00;31.43;100983.31;5062482;28;45296;-66
2023/07/19 00:11:16;;;;;;;;;5.00;3.75;;;;;25.87;31.06;100970.78;5062252;28;45547;-66
2023/07/19 00:13:41;;;;;;;;;4.75;3.25;;;;;25.92;31.60;100983.91;5071351;28;45367;-66
2023/07/19 00:16:06;;;;;;;;;2.00;2.00;;;;;25.88;31.17;100985.97;5081185;27;45918;-66
2023/07/19 00:18:31;;;;;;;;;4.50;2.50;;;;;25.86;31.88;100982.56;5082810;28;45254;-66
2023/07/19 00:20:57;;;;;;;;;4.50;3.00;;;;;25.82;31.52;100981.03;5082184;28;45215;-66
2023/07/19 00:23:22;;;;;;;;;2.25;2.25;;;;;25.79;31.80;100982.13;5082091;28;45278;-66
2023/07/19 00:25:48;;;;;;;;;5.00;2.25;;;;;25.77;31.99;100992.16;5081091;28;45441;-66
2023/07/19 00:28:13;;;;;;;;;2.75;2.75;;;;;25.73;31.57;100987.13;5073255;28;45302;-66
2023/07/19 00:30:38;;;;;;;;;4.75;3.00;;;;;25.69;31.97;100985.63;5061633;28;45450;-66
2023/07/19 00:33:04;;;;;;;;;2.00;2.00;;;;;25.68;32.25;100986.59;5059832;28;52336;-66
2023/07/19 00:35:30;;;;;;;;;4.75;2.75;;;;;25.61;31.76;100976.31;5061779;28;45317;-66
2023/07/19 00:37:56;;;;;;;;;3.75;3.75;;;;;25.59;31.71;100986.31;5062097;28;45357;-67
2023/07/19 00:40:22;;;;;;;;;3.00;3.00;;;;;25.56;32.19;100997.31;5061561;28;45268;-66
2023/07/19 00:42:47;;;;;;;;;3.00;2.00;;;;;25.54;31.86;100993.00;5061740;28;45943;-66
2023/07/19 00:45:12;;;;;;;;;5.00;4.00;;;;;25.49;32.17;100992.50;5061580;28;45485;-66
2023/07/19 00:47:38;;;;;;;;;3.50;3.50;;;;;25.46;31.97;100990.88;5061975;28;45271;-67
2023/07/19 00:50:06;;;;;;;;;3.00;3.00;;;;;25.43;32.05;100993.78;5061797;28;45208;-66
2023/07/19 00:52:31;;;;;;;;;2.50;2.25;;;;;25.39;32.57;100992.31;5066321;28;46992;-66
2023/07/19 00:54:57;;;;;;;;;7.00;3.00;;;;;25.35;32.47;100998.84;5061612;28;45236;-66
2023/07/19 00:57:23;;;;;;;;;2.75;2.75;;;;;25.33;32.15;101004.31;5061735;28;45203;-67
2023/07/19 00:59:48;;;;;;;;;2.00;2.00;;;;;25.30;32.31;100997.34;5061404;28;45373;-67
2023/07/19 01:02:14;;;;;;;;;4.75;3.00;;;;;25.28;32.26;101001.09;5061305;28;45393;-66
2023/07/19 01:04:39;;;;;;;;;2.00;2.00;;;;;25.23;32.58;101000.59;5061526;28;45268;-66
2023/07/19 01:07:05;;;;;;;;;1.50;1.00;;;;;25.21;32.33;101008.78;5065834;28;45355;-66
2023/07/19 01:09:31;;;;;;;;;3.50;1.50;;;;;25.17;32.71;101001.03;5061380;28;45376;-67
2023/07/19 01:11:57;;;;;;;;;3.00;3.00;;;;;25.16;32.66;100992.13;5059836;28;47777;-66
2023/07/19 01:14:22;;;;;;;;;3.00;3.00;;;;;25.14;32.31;100994.03;5074847;28;45483;-66
2023/07/19 01:16:47;;;;;;;;;2.50;2.50;;;;;25.12;32.76;100990.63;5081631;28;45426;-66
2023/07/19 01:19:14;;;;;;;;;2.00;2.00;;;;;25.11;32.25;100992.44;5080216;28;45310;-66
2023/07/19 01:21:40;;;;;;;;;5.50;2.00;;;;;25.07;32.91;100985.56;5081242;28;46136;-66
2023/07/19 01:24:05;;;;;;;;;3.50;2.75;;;;;25.09;32.48;100996.19;5081793;28;45444;-66
2023/07/19 01:26:31;;;;;;;;;3.75;3.00;;;;;25.08;32.67;100998.03;5081355;28;45505;-66
2023/07/19 01:28:57;;;;;;;;;2.75;2.75;;;;;25.06;33.09;100994.59;5066308;27;45426;-66
2023/07/19 01:31:22;;;;;;;;;3.00;3.00;;;;;25.06;33.19;100988.38;5061031;28;46262;-66
2023/07/19 01:33:48;;;;;;;;;1.75;1.75;;;;;25.06;32.81;101001.81;5060846;28;45220;-66
2023/07/19 01:36:13;;;;;;;;;2.50;2.50;;;;;25.05;32.70;101002.78;5061212;28;45508;-66
2023/07/19 01:38:41;;;;;;;;;3.25;1.50;;;;;25.01;32.67;100993.22;5061135;28;45376;-66
2023/07/19 01:41:06;;;;;;;;;4.50;2.75;;;;;25.02;33.08;100998.47;5060678;28;46042;-66
2023/07/19 01:43:31;;;;;;;;;2.00;2.00;;;;;25.01;32.83;100998.59;5060726;28;45514;-66
2023/07/19 01:45:58;;;;;;;;;2.00;2.00;;;;;24.98;32.74;101000.53;5060716;28;45490;-66
2023/07/19 01:48:23;;;;;;;;;5.25;2.25;;;;;24.98;33.00;101000.53;5061057;28;45270;-66
2023/07/19 01:50:48;;;;;;;;;3.25;3.25;;;;;24.98;33.18;101005.03;5060724;28;45330;-66
2023/07/19 01:53:15;;;;;;;;;3.00;2.00;;;;;24.96;33.10;101005.13;5072847;28;45428;-66
2023/07/19 01:55:40;;;;;;;;;2.00;2.00;;;;;24.95;33.14;101016.00;5060918;28;45146;-66
2023/07/19 01:58:06;;;;;;;;;4.25;3.25;;;;;24.92;33.25;101016.22;5060518;28;45216;-66
2023/07/19 02:00:32;;;;;;;;;5.50;3.50;;;;;24.91;32.82;101019.88;5060268;28;46101;-66
2023/07/19 02:02:57;;;;;;;;;2.25;2.25;;;;;24.88;32.86;101017.41;5060436;28;45213;-66
2023/07/19 02:05:22;;;;;;;;;2.75;1.75;;;;;24.86;33.45;101020.19;5060806;28;45320;-66
2023/07/19 02:07:48;;;;;;;;;2.50;2.00;;;;;24.81;32.93;101019.66;5060292;28;45499;-66
2023/07/19 02:10:13;;;;;;;;;3.00;3.00;;;;;24.80;33.03;101024.19;5059034;28;48061;-66
2023/07/19 02:12:39;;;;;;;;;2.00;2.00;;;;;24.79;33.09;101026.97;5060935;28;45240;-66
2023/07/19 02:15:05;;;;;;;;;4.25;3.00;;;;;24.75;33.40;101020.09;5079591;27;45354;-66
2023/07/19 02:17:30;;;;;;;;;3.75;3.00;;;;;24.72;33.12;101020.31;5080593;28;45428;-66
2023/07/19 02:19:55;;;;;;;;;1.75;1.75;;;;;24.72;33.04;101023.00;5078950;28;51125;-66
2023/07/19 02:22:21;;;;;;;;;3.50;3.50;;;;;24.67;33.34;101013.41;5080309;28;45428;-66
2023/07/19 02:24:46;;;;;;;;;2.75;2.75;;;;;24.68;33.38;101025.03;5080482;27;45406;-66
2023/07/19 02:27:12;;;;;;;;;4.00;3.25;;;;;24.68;33.17;101022.34;5078688;28;45437;-66
2023/07/19 02:29:37;;;;;;;;;3.75;3.75;;;;;24.65;33.06;101015.38;5059946;28;45652;-66
2023/07/19 02:32:04;;;;;;;;;2.00;2.00;;;;;24.65;33.51;101017.19;5060280;28;45234;-66
2023/07/19 02:34:29;;;;;;;;;2.00;2.00;;;;;24.63;33.29;101014.56;5080612;28;45318;-66
2023/07/19 02:36:56;;;;;;;;;3.25;3.00;;;;;24.60;33.10;101012.13;5080336;28;45265;-66
2023/07/19 02:39:22;;;;;;;;;3.00;3.00;;;;;24.58;33.42;101016.72;5080375;28;45229;-66
2023/07/19 02:41:47;;;;;;;;;1.75;0.50;;;;;24.55;33.35;101016.06;5078599;28;48776;-66
2023/07/19 02:44:12;;;;;;;;;2.75;2.75;;;;;24.53;33.29;101021.56;5080328;28;45211;-66
2023/07/19 02:46:38;;;;;;;;;2.75;2.75;;;;;24.52;33.68;101021.66;5079983;28;49129;-66
2023/07/19 02:49:03;;;;;;;;;3.25;2.25;;;;;24.49;33.42;101025.44;5080195;28;45367;-66
2023/07/19 02:51:28;;;;;;;;;2.00;2.00;;;;;24.46;33.87;101034.53;5080386;28;45321;-66
2023/07/19 02:53:54;;;;;;;;;3.00;2.25;;;;;24.43;33.88;101033.91;5080177;28;45498;-66
2023/07/19 02:56:19;;;;;;;;;1.75;1.75;;;;;24.36;33.57;101030.75;5081427;28;45476;-66
2023/07/19 02:58:44;;;;;;;;;2.25;2.25;;;;;24.34;33.37;101036.22;5082172;28;47065;-67
2023/07/19 03:01:14;;;;;;;;;2.00;2.00;;;;;24.31;33.37;101032.88;5082018;28;45365;-66
2023/07/19 03:03:41;;;;;;;;;5.00;3.00;;;;;24.27;33.79;101036.75;5083728;28;45240;-66
2023/07/19 03:06:07;;;;;;;;;4.00;2.50;;;;;24.18;33.93;101030.19;5083639;28;45215;-67
2023/07/19 03:08:34;;;;;;;;;5.00;3.00;;;;;24.19;33.69;101039.97;5083617;28;45239;-66
2023/07/19 03:11:00;;;;;;;;;3.25;2.75;;;;;24.11;34.33;101043.16;5083567;27;45394;-67
2023/07/19 03:13:25;;;;;;;;;2.00;2.00;;;;;24.11;34.14;101050.34;5081905;28;51583;-66
2023/07/19 03:15:50;;;;;;;;;3.00;3.00;;;;;24.07;34.20;101059.56;5083211;28;45452;-66
2023/07/19 03:18:16;;;;;;;;;2.25;2.25;;;;;23.99;34.29;101052.88;5083367;28;45441;-66
2023/07/19 03:20:41;;;;;;;;;3.25;3.25;;;;;23.98;34.26;101058.34;5082259;28;45997;-66
2023/07/19 03:23:06;;;;;;;;;3.50;2.75;;;;;23.94;34.57;101055.00;5061651;28;45465;-66
2023/07/19 03:25:32;;;;;;;;;6.50;4.50;;;;;23.89;34.48;101059.78;5063032;28;45388;-66
2023/07/19 03:27:57;;;;;;;;;4.75;3.75;;;;;23.85;34.47;101066.31;5074052;28;45256;-66
2023/07/19 03:30:23;;;;;;;;;3.00;3.00;;;;;23.81;34.69;101068.34;5071746;28;45344;-66
2023/07/19 03:32:48;;;;;;;;;4.00;4.00;;;;;23.78;34.74;101071.19;5063086;28;45312;-66
2023/07/19 03:35:14;;;;;;;;;2.25;2.25;;;;;23.72;34.84;101079.63;5062790;28;45169;-66
2023/07/19 03:37:44;;;;;;;;;3.00;3.00;;;;;23.65;34.83;101076.50;5062806;28;46063;-66
2023/07/19 03:40:11;;;;;;;;;7.25;3.25;;;;;23.63;34.64;101080.25;5062859;28;45401;-66
2023/07/19 03:42:36;;;;;;;;;4.00;3.00;;;;;23.58;34.81;101085.03;5062807;28;45311;-66
2023/07/19 03:45:01;;;;;;;;;3.00;3.00;;;;;23.53;34.92;101088.00;5062387;28;45334;-66
2023/07/19 03:47:27;;;;;;;;;2.25;2.25;;;;;23.34;35.15;101061.50;5062640;28;45443;-66
2023/07/19 03:49:52;;;;;;;;;3.00;1.75;;;;;23.44;34.78;101091.28;5062859;28;45359;-66
2023/07/19 03:52:17;;;;;;;;;5.00;4.00;;;;;23.38;35.14;101084.47;5062964;28;45245;-66
2023/07/19 03:54:43;;;;;;;;;3.75;3.00;;;;;23.34;34.89;101091.84;5061308;28;45671;-66
2023/07/19 03:57:08;;;;;;;;;3.00;3.00;;;;;23.32;35.21;101098.25;5062077;28;45322;-66
2023/07/19 03:59:33;;;;;;;;;4.50;3.00;;;;;23.28;35.00;101094.06;5062483;28;45174;-66
2023/07/19 04:01:59;;;;;;;;;4.25;3.50;;;;;23.24;35.13;101088.03;5062411;28;45469;-66
2023/07/19 04:04:24;;;;;;;;;3.00;3.00;;;;;23.20;35.00;101092.69;5062671;28;45430;-66
2023/07/19 04:06:49;;;;;;;;;4.00;2.00;;;;;23.17;35.19;101089.38;5059966;28;47041;-66
2023/07/19 04:09:15;;;;;;;;;2.50;2.50;;;;;23.15;35.24;101089.44;5061240;28;45290;-66
2023/07/19 04:11:40;;;;;;;;;2.75;2.75;;;;;23.12;35.11;101094.09;5076749;28;45504;-67
2023/07/19 04:14:05;;;;;;;;;3.00;3.00;;;;;23.13;34.95;101111.91;5073954;28;45457;-66
2023/07/19 04:16:31;;;;;;;;;2.50;2.25;;;;;23.10;35.09;101110.28;5080590;28;46264;-66
2023/07/19 04:18:56;;;;;;;;;1.75;1.75;;;;;23.07;35.28;101110.47;5082590;28;45421;-66
2023/07/19 04:21:22;;;;;;;;;1.50;1.50;;;;;23.03;35.47;101111.59;5082343;28;45520;-66
2023/07/19 04:23:47;;;;;;;;;2.00;2.00;;;;;22.99;35.14;101120.78;5082438;28;45212;-66
2023/07/19 04:26:13;;;;;;;;;2.50;2.50;;;;;22.97;35.22;101125.41;5081994;28;45417;-66
2023/07/19 04:28:38;;;;;;;;;3.25;3.00;;;;;22.95;35.61;101119.25;5068600;28;45505;-66
2023/07/19 04:31:03;;;;;;;;;3.00;1.75;;;;;22.96;35.37;101119.16;5061924;28;45422;-66
2023/07/19 04:33:30;;;;;;;;;0.50;0.00;;;;;22.92;35.37;101124.78;5060751;28;45335;-66
2023/07/19 04:35:56;;;;;;;;;2.25;2.25;;;;;22.89;35.21;101132.09;5061646;28;45281;-66
2023/07/19 04:38:21;;;;;;;;;1.50;1.50;;;;;22.88;35.32;101129.50;5060590;28;45316;-66
2023/07/19 04:40:46;;;;;;;;;1.00;1.00;;;;;22.86;35.32;101131.41;5061807;28;45931;-66
2023/07/19 04:43:12;;;;;;;;;1.00;1.00;;;;;22.79;35.57;101140.75;5069598;28;45494;-66
2023/07/19 04:45:37;;;;;;;;;1.00;0.25;;;;;22.78;35.09;101150.63;5061299;28;46281;-66
2023/07/19 04:48:03;;;;;;;;;2.25;1.00;;;;;22.71;35.36;101142.06;5061864;28;45366;-66
2023/07/19 04:50:29;;;;;;;;;2.50;1.25;;;;;22.68;35.19;101144.09;5061977;28;45460;-66
2023/07/19 04:52:54;;;;;;;;;3.00;2.00;;;;;22.65;35.13;101153.13;5061614;28;45231;-66
2023/07/19 04:55:20;;;;;;;;;2.75;1.00;;;;;22.59;35.24;101145.47;5060124;28;46808;-66
2023/07/19 04:57:46;;;;;;;;;3.00;1.00;;;;;22.57;35.46;101150.06;5061632;28;45220;-66
2023/07/19 05:00:12;;;;;;;;;2.00;1.50;;;;;22.49;34.85;101146.94;5075771;28;45298;-66
2023/07/19 05:02:43;;;;;;;;;1.00;1.00;;;;;22.54;35.01;101152.91;5061481;28;45174;-66
2023/07/19 05:05:09;;;;;;;;;1.75;1.75;;;;;22.49;34.95;101146.94;5060165;28;46995;-66
2023/07/19 05:07:36;;;;;;;;;1.50;1.00;;;;;22.47;35.34;101154.22;5061611;28;45247;-66
2023/07/19 05:10:03;;;;;;;;;1.00;1.00;;;;;22.43;35.31;101152.66;5061408;28;45242;-66
2023/07/19 05:12:32;;;;;;;;;1.50;1.00;;;;;22.39;35.35;101155.53;5061376;28;45511;-66
2023/07/19 05:14:57;;;;;;;;;2.75;1.00;;;;;22.35;35.52;101155.75;5080825;28;46511;-66
2023/07/19 05:17:23;;;;;;;;;0.75;0.00;;;;;22.34;35.14;101154.91;5097280;27;45387;-66
2023/07/19 05:19:48;;;;;;;;;3.25;3.00;;;;;22.32;35.13;101153.25;5081363;28;45256;-66
2023/07/19 05:22:13;;;;;;;;;15.50;15.50;;;;;;;;5081378;28;45234;-66
2023/07/19 05:24:39;;;;;;;;;2.25;1.25;;;;;22.31;35.42;101151.53;5081618;28;46713;-66
2023/07/19 05:27:05;;;;;;;;;1.75;1.00;;;;;22.31;35.18;101156.88;5081247;28;45211;-66
2023/07/19 05:29:32;;;;;;;;;1.75;1.00;;;;;22.29;35.50;101154.28;5076727;28;45238;-66
2023/07/19 05:31:57;;;;;;;;;1.00;1.00;;;;;22.29;35.81;101164.13;5061006;28;45452;-66
2023/07/19 05:34:22;;;;;;;;;2.25;2.25;;;;;22.27;35.11;101160.69;5060836;28;46275;-66
2023/07/19 05:36:48;;;;;;;;;2.25;1.50;;;;;22.27;35.55;101156.19;5059765;28;45941;-66
2023/07/19 05:39:14;;;;;;;;;1.50;1.50;;;;;22.29;35.79;101165.00;5061133;28;45469;-66
2023/07/19 05:41:39;;;;;;;;;4.50;1.00;;;;;22.29;35.73;101164.13;5060844;28;45404;-66
2023/07/19 05:44:05;;;;;;;;;2.00;2.00;;;;;22.26;35.48;101167.00;5060577;28;45823;-66
2023/07/19 05:46:33;;;;;;;;;2.00;2.00;;;;;22.23;35.58;101166.19;5060773;28;45481;-66
2023/07/19 05:48:58;;;;;;;;;0.75;0.75;;;;;22.21;35.95;101173.47;5060957;28;45332;-66
2023/07/19 05:51:23;;;;;;;;;3.00;1.25;;;;;22.16;35.93;101169.31;5060602;28;49488;-66
2023/07/19 05:53:48;;;;;;;;;3.25;2.75;;;;;22.07;35.99;101166.22;5060873;28;45318;-66
2023/07/19 05:56:14;;;;;;;;;2.00;1.00;;;;;22.07;35.69;101182.28;5060686;28;45293;-66
2023/07/19 05:58:40;;;;;;;;;2.50;2.00;;;;;22.07;35.91;101178.72;5060357;28;45166;-66
2023/07/19 06:01:07;;;;;;;;;3.75;3.75;;;;;22.05;36.51;101183.31;5059415;28;45566;-66
2023/07/19 06:03:33;;;;;;;;;3.50;1.75;;;;;22.04;35.71;101184.25;5060171;28;46045;-66
2023/07/19 06:05:58;;;;;;;;;4.75;2.25;;;;;22.02;36.22;101187.00;5060686;28;45612;-66
2023/07/19 06:08:23;;;;;;;;;2.00;2.00;;;;;22.02;36.19;101184.31;5060685;28;45367;-66
2023/07/19 06:10:50;;;;;;;;;2.25;0.75;;;;;22.03;36.20;101183.38;5068326;28;45295;-66
2023/07/19 06:13:15;;;;;;;;;3.25;3.00;;;;;22.05;36.11;101180.63;5065800;28;45646;-66
2023/07/19 06:15:40;;;;;;;;;2.00;2.00;;;;;22.04;35.96;101182.44;5080465;28;45345;-66
2023/07/19 06:18:06;;;;;;;;;6.75;5.75;;;;;22.06;35.72;101185.91;5080604;28;45327;-66
2023/07/19 06:20:32;;;;;;;;;2.00;1.25;;;;;22.05;36.07;101191.34;5080474;28;45383;-66
2023/07/19 06:22:57;;;;;;;;;2.00;2.00;;;;;22.03;35.68;101191.41;5080215;28;45465;-66
2023/07/19 06:25:22;;;;;;;;;2.00;2.00;;;;;22.00;36.20;101196.06;5080350;28;45314;-66
2023/07/19 06:27:48;;;;;;;;;2.75;2.75;;;;;21.98;36.29;101201.50;5079226;28;45425;-66
2023/07/19 06:30:13;;;;;;;;;1.00;1.00;;;;;21.95;36.57;101200.78;5079379;28;45335;-66
2023/07/19 06:32:38;;;;;;;;;1.00;1.00;;;;;21.93;36.61;101203.56;5078999;28;47457;-66
2023/07/19 06:35:05;;;;;;;;;2.00;2.00;;;;;21.91;36.48;101206.34;5080410;28;45282;-66
2023/07/19 06:37:32;;;;;;;;;0.25;0.25;;;;;21.90;36.80;101198.41;5079134;28;45563;-66
2023/07/19 06:39:57;;;;;;;;;2.75;2.25;;;;;21.92;36.65;101201.84;5066905;27;45561;-66
2023/07/19 06:42:22;;;;;;;;;2.50;2.00;;;;;21.89;37.40;101200.19;5059711;28;45980;-66
2023/07/19 06:44:47;;;;;;;;;1.00;1.00;;;;;21.89;37.73;101194.84;5059738;28;45162;-66
2023/07/19 06:47:14;;;;;;;;;1.75;1.75;;;;;21.87;37.28;101195.88;5059979;28;45276;-66
2023/07/19 06:49:40;;;;;;;;;0.50;0.50;;;;;21.86;37.32;101195.03;5059824;28;45419;-66
2023/07/19 06:52:06;;;;;;;;;0.00;0.00;;;;;21.86;37.56;101191.47;5059459;28;46303;-66
2023/07/19 06:54:31;;;;;;;;;2.00;1.00;;;;;21.83;38.00;101189.81;5059948;28;45339;-66
2023/07/19 06:56:56;;;;;;;;;1.25;1.00;;;;;21.86;37.80;101189.66;5059653;28;45359;-66
2023/07/19 06:59:22;;;;;;;;;0.50;0.50;;;;;21.86;37.88;101192.34;5059781;28;45382;-66
2023/07/19 07:01:47;;;;;;;;;0.25;0.25;;;;;21.89;38.02;101184.13;5059496;28;46102;-66
2023/07/19 07:04:13;;;;;;;;;2.50;2.00;;;;;21.90;38.33;101193.03;5059854;28;45316;-66
2023/07/19 07:06:38;;;;;;;;;1.50;0.75;;;;;21.91;38.83;101186.72;5059893;28;45249;-66
2023/07/19 07:09:04;;;;;;;;;1.00;1.00;;;;;21.93;38.57;101192.88;5059786;28;45204;-66
2023/07/19 07:11:29;;;;;;;;;0.00;0.00;;;;;21.96;38.41;101200.75;5059464;28;45335;-66
2023/07/19 07:13:54;;;;;;;;;1.00;1.00;;;;;21.99;38.88;101197.88;5070581;28;45176;-65
2023/07/19 07:16:20;;;;;;;;;2.75;1.00;;;;;22.01;38.78;101198.66;5080004;28;45495;-66
2023/07/19 07:18:45;;;;;;;;;1.00;1.00;;;;;22.04;38.76;101193.13;5078637;28;45482;-66
2023/07/19 07:21:10;;;;;;;;;1.00;0.00;;;;;22.07;39.14;101198.34;5079516;28;45593;-66
2023/07/19 07:23:36;;;;;;;;;0.25;0.25;;;;;22.10;39.03;101201.75;5079982;28;45354;-66
2023/07/19 07:26:01;;;;;;;;;2.75;1.50;;;;;22.12;39.18;101199.88;5079777;28;45386;-66
2023/07/19 07:28:26;;;;;;;;;2.00;2.00;;;;;22.13;38.86;101207.81;5068810;28;45220;-66
2023/07/19 07:30:52;;;;;;;;;1.25;0.75;;;;;22.14;38.99;101206.00;5058104;28;48106;-66
2023/07/19 07:33:19;;;;;;;;;1.50;0.00;;;;;22.15;39.50;101200.56;5058001;28;45256;-66
2023/07/19 07:35:45;;;;;;;;;2.50;2.00;;;;;22.15;38.95;101199.69;5058116;28;45412;-66
2023/07/19 07:38:10;;;;;;;;;9.25;9.25;;;;;22.19;39.15;101202.13;5059344;28;45453;-66
2023/07/19 07:40:35;;;;;;;;;5.00;5.00;;;;;22.24;39.20;101204.56;5059148;28;45421;-66
2023/07/19 07:43:01;;;;;;;;;0.75;0.75;;;;;22.28;39.59;101215.94;5062710;28;45362;-66
2023/07/19 07:45:26;;;;;;;;;1.00;1.00;;;;;22.31;39.13;101211.25;5062597;28;45293;-66
2023/07/19 07:47:51;;;;;;;;;9.00;7.00;;;;;22.36;39.70;101209.22;5062671;28;45272;-66
2023/07/19 07:50:19;;;;;;;;;2.00;0.50;;;;;22.39;39.37;101209.06;5062719;28;45370;-66
2023/07/19 07:52:44;;;;;;;;;0.00;0.00;;;;;22.44;39.63;101207.94;5061406;28;45376;-66
2023/07/19 07:55:10;;;;;;;;;2.00;1.75;;;;;22.43;39.47;101201.72;5062489;28;45777;-66
2023/07/19 07:57:37;;;;;;;;;4.00;4.00;;;;;22.53;39.90;101210.09;5062536;28;45223;-66
2023/07/19 08:00:06;;;;;;;;;0.75;0.75;;;;;22.55;39.68;101200.16;5062430;28;45347;-66
2023/07/19 08:02:31;;;;;;;;;1.50;1.50;;;;;22.65;40.15;101208.53;5062212;28;45383;-66
2023/07/19 08:04:57;;;;;;;;;1.00;0.75;;;;;22.70;39.65;101209.13;5061160;28;45448;-66
2023/07/19 08:07:22;;;;;;;;;1.25;1.00;;;;;22.77;39.76;101206.97;5062481;28;45313;-66
2023/07/19 08:09:47;;;;;;;;;1.00;1.00;;;;;22.81;39.58;101209.34;5062020;28;45392;-66
2023/07/19 08:12:16;;;;;;;;;1.25;1.25;;;;;22.88;39.59;101201.84;5062292;28;45386;-66
2023/07/19 08:14:41;;;;;;;;;2.00;2.00;;;;;22.93;39.68;101201.53;5079956;28;45230;-66
2023/07/19 08:17:06;;;;;;;;;1.50;1.00;;;;;22.98;39.76;101210.16;5081191;28;45726;-66
2023/07/19 08:19:32;;;;;;;;;1.00;1.00;;;;;23.03;40.00;101198.25;5082521;28;45351;-66
2023/07/19 08:22:02;;;;;;;;;2.25;1.00;;;;;23.10;39.34;101213.97;5082381;28;45237;-66
2023/07/19 08:24:28;;;;;;;;;4.75;2.75;;;;;23.14;39.61;101199.41;5081623;27;45342;-66
2023/07/19 08:26:53;;;;;;;;;8.00;5.50;;;;;23.19;39.65;101208.06;5080648;28;45756;-67
2023/07/19 08:29:18;;;;;;;;;1.00;1.00;;;;;23.24;39.41;101210.47;5064674;27;45422;-67
2023/07/19 08:31:44;;;;;;;;;1.75;1.75;;;;;23.29;39.82;101203.88;5060845;28;45333;-66
2023/07/19 08:34:09;;;;;;;;;1.25;1.00;;;;;23.32;39.43;101198.34;5062010;28;45227;-67
2023/07/19 08:36:34;;;;;;;;;0.25;0.25;;;;;23.39;39.17;101206.84;5062074;28;45207;-67
2023/07/19 08:39:00;;;;;;;;;1.00;1.00;;;;;23.43;39.33;101194.97;5061781;28;45249;-67
2023/07/19 08:41:28;;;;;;;;;1.75;1.75;;;;;23.40;39.13;101188.97;5061938;28;45259;-67
2023/07/19 08:43:54;;;;;;;;;2.75;1.50;;;;;23.50;39.33;101201.69;5061729;28;45429;-66
2023/07/19 08:46:20;;;;;;;;;3.50;2.25;;;;;23.50;38.86;101201.69;5061654;28;45318;-67
2023/07/19 08:48:47;;;;;;;;;3.75;3.00;;;;;23.51;39.04;101202.59;5061628;28;45348;-66
2023/07/19 08:51:14;;;;;;;;;2.00;2.00;;;;;23.55;39.02;101198.75;5061700;28;45339;-67
2023/07/19 08:53:39;;;;;;;;;1.00;1.00;;;;;23.55;38.94;101204.09;5060964;28;45321;-67
2023/07/19 08:56:05;;;;;;;;;0.50;0.50;;;;;23.58;38.97;101198.53;5061755;28;45252;-67
2023/07/19 08:58:34;;;;;;;;;4.75;3.00;;;;;23.60;38.58;101199.31;5061211;28;45327;-66
2023/07/19 09:00:59;;;;;;;;;1.25;1.25;;;;;23.59;38.84;101197.59;5061638;28;45385;-66
2023/07/19 09:03:24;;;;;;;;;1.00;1.00;;;;;23.64;38.60;101200.00;5060099;28;45421;-67
2023/07/19 09:05:53;;;;;;;;;2.00;1.00;;;;;23.66;38.73;101200.75;5061336;28;49300;-67
2023/07/19 09:08:19;;;;;;;;;2.00;2.00;;;;;23.66;38.67;101200.75;5061221;28;45366;-68
2023/07/19 09:10:45;;;;;;;;;1.00;1.00;;;;;23.68;38.83;101196.16;5061447;28;45235;-67
2023/07/19 09:13:16;;;;;;;;;2.00;1.75;;;;;23.72;38.38;101194.16;5066604;28;45435;-66
2023/07/19 09:15:42;;;;;;;;;3.25;2.75;;;;;23.73;38.69;101186.00;5081611;28;45682;-67
2023/07/19 09:18:07;;;;;;;;;6.00;2.25;;;;;23.74;38.43;101194.94;5081135;28;45386;-66
2023/07/19 09:20:35;;;;;;;;;1.25;1.00;;;;;23.81;38.53;101196.25;5081519;28;45330;-67
2023/07/19 09:23:07;;;;;;;;;1.00;0.50;;;;;23.84;38.49;101204.13;5081422;28;45483;-67
2023/07/19 09:25:50;;;;;;;;;2.00;2.00;;;;;23.84;38.21;101196.06;5081318;28;45301;-67
2023/07/19 09:28:19;;;;;;;;;1.00;1.00;;;;;23.89;38.20;101202.00;5060869;28;46044;-67
2023/07/19 09:30:54;;;;;;;;;2.00;2.00;;;;;23.93;38.02;101194.66;5075389;28;45197;-67
2023/07/19 09:33:20;;;;;;;;;2.00;2.00;;;;;23.95;38.28;101196.28;5080157;28;45473;-67
2023/07/19 09:35:45;;;;;;;;;3.00;1.25;;;;;23.96;38.06;101200.69;5081160;28;45235;-67
2023/07/19 09:38:11;;;;;;;;;4.75;3.00;;;;;24.01;38.00;101189.63;5079925;28;47442;-67
2023/07/19 09:40:36;;;;;;;;;3.00;2.00;;;;;24.05;38.11;101203.72;5081049;28;45213;-67
2023/07/19 09:43:01;;;;;;;;;2.75;2.75;;;;;24.01;38.14;101187.84;5081346;28;45393;-67
2023/07/19 09:45:32;;;;;;;;;2.50;2.50;;;;;24.07;38.03;101204.50;5080914;28;45420;-67
2023/07/19 09:47:59;;;;;;;;;1.00;1.00;;;;;24.02;38.00;101188.69;5079847;28;47383;-67
2023/07/19 09:50:27;;;;;;;;;1.25;1.00;;;;;24.06;37.98;101200.09;5081079;28;45459;-67
2023/07/19 09:52:55;;;;;;;;;2.00;2.00;;;;;24.11;37.69;101208.72;5081131;28;45303;-67
2023/07/19 09:55:21;;;;;;;;;4.00;3.25;;;;;24.14;37.46;101197.78;5079554;27;45280;-67
2023/07/19 09:57:48;;;;;;;;;1.25;1.25;;;;;24.16;37.51;101193.16;5080899;28;46303;-67
2023/07/19 10:00:14;;;;;;;;;3.00;1.50;;;;;24.21;37.41;101195.56;5080755;28;45319;-67
2023/07/19 10:02:40;;;;;;;;;2.00;2.00;;;;;24.25;37.43;101181.84;5079781;27;45386;-67
2023/07/19 10:05:07;;;;;;;;;2.00;2.00;;;;;24.34;37.45;101196.50;5079245;28;49953;-67
2023/07/19 10:07:35;;;;;;;;;1.50;1.25;;;;;24.38;37.22;101191.75;5080772;28;46924;-66
2023/07/19 10:10:03;;;;;;;;;1.00;1.00;;;;;24.47;37.17;101188.50;5080479;28;45473;-67
2023/07/19 10:12:28;;;;;;;;;3.75;2.00;;;;;24.52;37.25;101189.03;5073160;28;45314;-67
2023/07/19 10:15:05;;;;;;;;;3.50;3.50;;;;;24.62;37.00;101192.84;5079460;28;45302;-67
2023/07/19 10:17:53;;;;;;;;;1.25;1.25;;;;;24.70;36.98;101196.88;5080660;28;46180;-67
2023/07/19 10:20:24;;;;;;;;;1.25;1.00;;;;;24.79;36.92;101191.75;5068851;28;45546;-66
2023/07/19 10:22:52;;;;;;;;;4.00;2.25;;;;;24.88;37.06;101184.91;5078421;28;45169;-66
2023/07/19 10:25:25;;;;;;;;;1.25;1.25;;;;;24.96;37.20;101190.59;5078946;28;45371;-66
2023/07/19 10:27:56;;;;;;;;;2.00;2.00;;;;;25.07;37.19;101199.75;5074353;28;45193;-66
2023/07/19 10:30:22;;;;;;;;;1.00;0.75;;;;;25.15;36.53;101200.09;5060055;28;45406;-66
2023/07/19 10:32:50;;;;;;;;;1.75;1.75;;;;;25.28;36.98;101190.22;5058941;28;45409;-66
2023/07/19 10:35:46;;;;;;;;;2.00;2.00;;;;;25.46;36.60;101192.63;5058776;28;45457;-66
2023/07/19 10:38:23;;;;;;;;;0.00;0.00;;;;;25.63;36.49;101180.66;5051163;28;45225;-66
2023/07/19 10:40:59;;;;;;;;;2.00;2.00;;;;;25.90;37.15;101195.78;5059913;28;45231;-66
2023/07/19 10:43:26;;;;;;;;;3.75;2.50;;;;;26.19;36.55;101201.81;5059732;28;45309;-66
2023/07/19 10:45:52;;;;;;;;;2.00;2.00;;;;;26.51;36.60;101200.41;5060054;28;45297;-66
2023/07/19 10:48:20;;;;;;;;;4.75;1.75;;;;;26.81;36.32;101205.34;5059606;28;46161;-66
2023/07/19 10:50:46;;;;;;;;;1.75;1.75;;;;;27.11;36.27;101203.97;5060198;28;45271;-66
2023/07/19 10:53:12;;;;;;;;;3.00;1.00;;;;;27.40;35.72;101201.72;5059916;28;45303;-66
2023/07/19 10:55:37;;;;;;;;;2.25;2.00;;;;;27.71;35.63;101190.34;5059548;28;45157;-66
2023/07/19 10:58:04;;;;;;;;;2.75;1.75;;;;;27.97;35.56;101190.09;5059734;28;45360;-68
2023/07/19 11:00:29;;;;;;;;;1.00;1.00;;;;;28.22;35.74;101197.94;5059733;28;45438;-66
2023/07/19 11:02:54;;;;;;;;;1.50;1.50;;;;;28.46;35.62;101196.91;5059666;28;45462;-66
2023/07/19 11:05:20;;;;;;;;;1.00;1.00;;;;;28.74;35.17;101201.88;5060036;28;45335;-67
2023/07/19 11:07:49;;;;;;;;;2.00;2.00;;;;;28.99;34.89;101190.69;5068992;28;46024;-67
2023/07/19 11:10:14;;;;;;;;;2.50;1.50;;;;;29.27;34.82;101195.56;5058544;28;46110;-67
2023/07/19 11:12:41;;;;;;;;;2.75;2.00;;;;;29.52;35.00;101199.72;5060365;28;45319;-67
2023/07/19 11:15:07;;;;;;;;;1.50;1.00;;;;;29.74;34.75;101195.13;5079717;28;45614;-67
2023/07/19 11:17:32;;;;;;;;;3.00;3.00;;;;;29.97;34.25;101201.22;5081650;28;46176;-67
2023/07/19 11:19:58;;;;;;;;;2.00;2.00;;;;;30.13;33.88;101190.72;5062016;28;45523;-67
2023/07/19 11:22:25;;;;;;;;;4.00;4.00;;;;;30.34;34.32;101195.19;5063109;28;45260;-67